sensor_id;sensor_type;location;lat;lon;timestamp;P1;durP1;ratioP1;P2;durP2;ratioP2
82703;SDS011;72427;42.000;21.464;2024-01-30T00:02:08;16.48;;;9.10;;
82703;SDS011;72427;42.000;21.464;2024-01-30T00:04:35;19.33;;;10.18;;
82703;SDS011;72427;42.000;21.464;2024-01-30T00:07:01;19.98;;;9.65;;
82703;SDS011;72427;42.000;21.464;2024-01-30T00:09:27;17.77;;;9.32;;
82703;SDS011;72427;42.000;21.464;2024-01-30T00:11:53;20.17;;;9.55;;
82703;SDS011;72427;42.000;21.464;2024-01-30T00:14:19;17.65;;;9.38;;
82703;SDS011;72427;42.000;21.464;2024-01-30T00:16:45;20.38;;;9.82;;
82703;SDS011;72427;42.000;21.464;2024-01-30T00:19:11;18.17;;;9.40;;
82703;SDS011;72427;42.000;21.464;2024-01-30T00:21:37;19.48;;;9.95;;
82703;SDS011;72427;42.000;21.464;2024-01-30T00:24:03;17.77;;;9.57;;
82703;SDS011;72427;42.000;21.464;2024-01-30T00:26:29;18.33;;;9.32;;
82703;SDS011;72427;42.000;21.464;2024-01-30T00:28:55;17.83;;;8.25;;
82703;SDS011;72427;42.000;21.464;2024-01-30T00:31:21;17.55;;;9.13;;
82703;SDS011;72427;42.000;21.464;2024-01-30T00:33:47;14.95;;;7.45;;
82703;SDS011;72427;42.000;21.464;2024-01-30T00:36:13;17.92;;;8.57;;
82703;SDS011;72427;42.000;21.464;2024-01-30T00:38:39;14.48;;;8.05;;
82703;SDS011;72427;42.000;21.464;2024-01-30T00:41:06;14.85;;;7.32;;
82703;SDS011;72427;42.000;21.464;2024-01-30T00:43:32;15.18;;;7.65;;
82703;SDS011;72427;42.000;21.464;2024-01-30T00:45:58;16.00;;;8.25;;
82703;SDS011;72427;42.000;21.464;2024-01-30T00:48:24;14.73;;;7.57;;
82703;SDS011;72427;42.000;21.464;2024-01-30T00:50:50;14.70;;;7.88;;
82703;SDS011;72427;42.000;21.464;2024-01-30T00:53:16;17.27;;;7.70;;
82703;SDS011;72427;42.000;21.464;2024-01-30T00:55:43;20.95;;;8.55;;
82703;SDS011;72427;42.000;21.464;2024-01-30T00:58:09;14.75;;;8.40;;
82703;SDS011;72427;42.000;21.464;2024-01-30T01:00:35;15.48;;;8.77;;
82703;SDS011;72427;42.000;21.464;2024-01-30T01:03:02;16.80;;;8.73;;
82703;SDS011;72427;42.000;21.464;2024-01-30T01:05:28;16.05;;;8.13;;
82703;SDS011;72427;42.000;21.464;2024-01-30T01:07:54;19.75;;;8.35;;
82703;SDS011;72427;42.000;21.464;2024-01-30T01:10:20;14.32;;;7.95;;
82703;SDS011;72427;42.000;21.464;2024-01-30T01:12:47;16.30;;;9.18;;
82703;SDS011;72427;42.000;21.464;2024-01-30T01:15:14;21.52;;;9.40;;
82703;SDS011;72427;42.000;21.464;2024-01-30T01:17:40;17.45;;;8.80;;
82703;SDS011;72427;42.000;21.464;2024-01-30T01:20:06;19.38;;;8.95;;
82703;SDS011;72427;42.000;21.464;2024-01-30T01:22:33;19.08;;;9.65;;
82703;SDS011;72427;42.000;21.464;2024-01-30T01:24:59;16.58;;;8.43;;
82703;SDS011;72427;42.000;21.464;2024-01-30T01:27:25;17.25;;;8.73;;
82703;SDS011;72427;42.000;21.464;2024-01-30T01:29:52;22.38;;;9.38;;
82703;SDS011;72427;42.000;21.464;2024-01-30T01:32:18;17.08;;;7.97;;
82703;SDS011;72427;42.000;21.464;2024-01-30T01:34:44;18.27;;;8.63;;
82703;SDS011;72427;42.000;21.464;2024-01-30T01:37:10;19.25;;;8.85;;
82703;SDS011;72427;42.000;21.464;2024-01-30T01:39:36;16.50;;;8.85;;
82703;SDS011;72427;42.000;21.464;2024-01-30T01:42:02;19.65;;;9.88;;
82703;SDS011;72427;42.000;21.464;2024-01-30T01:44:28;19.13;;;9.98;;
82703;SDS011;72427;42.000;21.464;2024-01-30T01:46:54;14.32;;;7.30;;
82703;SDS011;72427;42.000;21.464;2024-01-30T01:49:22;17.88;;;8.75;;
82703;SDS011;72427;42.000;21.464;2024-01-30T01:51:48;17.52;;;8.38;;
82703;SDS011;72427;42.000;21.464;2024-01-30T01:54:15;16.30;;;8.02;;
82703;SDS011;72427;42.000;21.464;2024-01-30T01:56:41;16.58;;;8.57;;
82703;SDS011;72427;42.000;21.464;2024-01-30T01:59:08;17.50;;;8.35;;
82703;SDS011;72427;42.000;21.464;2024-01-30T02:01:35;17.75;;;9.02;;
82703;SDS011;72427;42.000;21.464;2024-01-30T02:04:02;17.90;;;8.88;;
82703;SDS011;72427;42.000;21.464;2024-01-30T02:06:28;19.33;;;8.38;;
82703;SDS011;72427;42.000;21.464;2024-01-30T02:08:54;18.58;;;8.63;;
82703;SDS011;72427;42.000;21.464;2024-01-30T02:11:21;16.60;;;8.88;;
82703;SDS011;72427;42.000;21.464;2024-01-30T02:13:48;18.55;;;8.52;;
82703;SDS011;72427;42.000;21.464;2024-01-30T02:16:14;15.65;;;8.05;;
82703;SDS011;72427;42.000;21.464;2024-01-30T02:18:40;19.63;;;8.50;;
82703;SDS011;72427;42.000;21.464;2024-01-30T02:21:10;18.27;;;9.05;;
82703;SDS011;72427;42.000;21.464;2024-01-30T02:23:36;18.85;;;9.23;;
82703;SDS011;72427;42.000;21.464;2024-01-30T02:26:03;17.50;;;8.68;;
82703;SDS011;72427;42.000;21.464;2024-01-30T02:28:29;12.55;;;6.57;;
82703;SDS011;72427;42.000;21.464;2024-01-30T02:30:55;15.75;;;6.60;;
82703;SDS011;72427;42.000;21.464;2024-01-30T02:33:21;17.20;;;8.07;;
82703;SDS011;72427;42.000;21.464;2024-01-30T02:35:47;14.60;;;8.00;;
82703;SDS011;72427;42.000;21.464;2024-01-30T02:38:13;21.92;;;9.00;;
82703;SDS011;72427;42.000;21.464;2024-01-30T02:40:39;22.20;;;10.48;;
82703;SDS011;72427;42.000;21.464;2024-01-30T02:43:05;20.60;;;8.98;;
82703;SDS011;72427;42.000;21.464;2024-01-30T02:45:31;19.55;;;9.38;;
82703;SDS011;72427;42.000;21.464;2024-01-30T02:47:57;22.63;;;11.18;;
82703;SDS011;72427;42.000;21.464;2024-01-30T02:50:23;24.48;;;12.70;;
82703;SDS011;72427;42.000;21.464;2024-01-30T02:52:49;24.95;;;12.38;;
82703;SDS011;72427;42.000;21.464;2024-01-30T02:55:15;34.38;;;14.27;;
82703;SDS011;72427;42.000;21.464;2024-01-30T02:57:44;27.05;;;13.00;;
82703;SDS011;72427;42.000;21.464;2024-01-30T03:00:11;25.38;;;12.95;;
82703;SDS011;72427;42.000;21.464;2024-01-30T03:02:37;27.17;;;14.10;;
82703;SDS011;72427;42.000;21.464;2024-01-30T03:05:03;27.55;;;13.55;;
82703;SDS011;72427;42.000;21.464;2024-01-30T03:07:29;27.98;;;13.30;;
82703;SDS011;72427;42.000;21.464;2024-01-30T03:09:55;29.92;;;12.98;;
82703;SDS011;72427;42.000;21.464;2024-01-30T03:12:21;23.40;;;11.30;;
82703;SDS011;72427;42.000;21.464;2024-01-30T03:14:48;28.98;;;13.38;;
82703;SDS011;72427;42.000;21.464;2024-01-30T03:17:14;24.67;;;12.35;;
82703;SDS011;72427;42.000;21.464;2024-01-30T03:19:40;13.80;;;7.05;;
82703;SDS011;72427;42.000;21.464;2024-01-30T03:22:06;26.67;;;12.63;;
82703;SDS011;72427;42.000;21.464;2024-01-30T03:24:33;26.00;;;12.18;;
82703;SDS011;72427;42.000;21.464;2024-01-30T03:26:59;23.58;;;10.93;;
82703;SDS011;72427;42.000;21.464;2024-01-30T03:29:25;24.40;;;10.98;;
82703;SDS011;72427;42.000;21.464;2024-01-30T03:31:51;27.00;;;13.38;;
82703;SDS011;72427;42.000;21.464;2024-01-30T03:34:17;24.67;;;10.20;;
82703;SDS011;72427;42.000;21.464;2024-01-30T03:36:43;19.85;;;10.18;;
82703;SDS011;72427;42.000;21.464;2024-01-30T03:39:09;14.27;;;7.53;;
82703;SDS011;72427;42.000;21.464;2024-01-30T03:41:35;18.63;;;8.30;;
82703;SDS011;72427;42.000;21.464;2024-01-30T03:44:02;19.35;;;9.05;;
82703;SDS011;72427;42.000;21.464;2024-01-30T03:46:28;21.08;;;10.55;;
82703;SDS011;72427;42.000;21.464;2024-01-30T03:48:54;22.33;;;10.07;;
82703;SDS011;72427;42.000;21.464;2024-01-30T03:51:20;21.02;;;9.60;;
82703;SDS011;72427;42.000;21.464;2024-01-30T03:53:46;20.67;;;10.07;;
82703;SDS011;72427;42.000;21.464;2024-01-30T03:56:12;18.65;;;9.93;;
82703;SDS011;72427;42.000;21.464;2024-01-30T03:58:39;22.60;;;9.25;;
82703;SDS011;72427;42.000;21.464;2024-01-30T04:01:05;19.60;;;9.60;;
82703;SDS011;72427;42.000;21.464;2024-01-30T04:03:31;29.95;;;9.98;;
82703;SDS011;72427;42.000;21.464;2024-01-30T04:05:57;23.25;;;11.40;;
82703;SDS011;72427;42.000;21.464;2024-01-30T04:08:23;19.67;;;10.00;;
82703;SDS011;72427;42.000;21.464;2024-01-30T04:10:49;21.33;;;9.65;;
82703;SDS011;72427;42.000;21.464;2024-01-30T04:13:15;25.40;;;9.95;;
82703;SDS011;72427;42.000;21.464;2024-01-30T04:15:41;15.77;;;8.38;;
82703;SDS011;72427;42.000;21.464;2024-01-30T04:18:07;23.15;;;10.73;;
82703;SDS011;72427;42.000;21.464;2024-01-30T04:20:33;26.42;;;10.15;;
82703;SDS011;72427;42.000;21.464;2024-01-30T04:22:59;21.92;;;9.82;;
82703;SDS011;72427;42.000;21.464;2024-01-30T04:25:25;17.48;;;8.80;;
82703;SDS011;72427;42.000;21.464;2024-01-30T04:27:51;20.08;;;8.85;;
82703;SDS011;72427;42.000;21.464;2024-01-30T04:30:17;18.83;;;8.75;;
82703;SDS011;72427;42.000;21.464;2024-01-30T04:32:43;17.52;;;9.13;;
82703;SDS011;72427;42.000;21.464;2024-01-30T04:35:10;22.08;;;9.60;;
82703;SDS011;72427;42.000;21.464;2024-01-30T04:37:36;20.80;;;9.65;;
82703;SDS011;72427;42.000;21.464;2024-01-30T04:40:02;18.88;;;9.50;;
82703;SDS011;72427;42.000;21.464;2024-01-30T04:42:28;21.98;;;11.68;;
82703;SDS011;72427;42.000;21.464;2024-01-30T04:44:54;20.23;;;10.43;;
82703;SDS011;72427;42.000;21.464;2024-01-30T04:47:20;26.58;;;12.27;;
82703;SDS011;72427;42.000;21.464;2024-01-30T04:49:47;27.33;;;12.85;;
82703;SDS011;72427;42.000;21.464;2024-01-30T04:52:13;26.65;;;12.15;;
82703;SDS011;72427;42.000;21.464;2024-01-30T04:54:39;31.33;;;12.68;;
82703;SDS011;72427;42.000;21.464;2024-01-30T04:57:05;33.60;;;14.35;;
82703;SDS011;72427;42.000;21.464;2024-01-30T04:59:34;29.75;;;12.10;;
82703;SDS011;72427;42.000;21.464;2024-01-30T05:02:01;31.40;;;12.88;;
82703;SDS011;72427;42.000;21.464;2024-01-30T05:04:27;24.05;;;10.40;;
82703;SDS011;72427;42.000;21.464;2024-01-30T05:06:53;24.98;;;10.07;;
82703;SDS011;72427;42.000;21.464;2024-01-30T05:09:19;22.20;;;9.98;;
82703;SDS011;72427;42.000;21.464;2024-01-30T05:11:46;19.60;;;10.80;;
82703;SDS011;72427;42.000;21.464;2024-01-30T05:14:12;39.80;;;13.02;;
82703;SDS011;72427;42.000;21.464;2024-01-30T05:16:40;24.10;;;10.43;;
82703;SDS011;72427;42.000;21.464;2024-01-30T05:19:07;23.92;;;10.57;;
82703;SDS011;72427;42.000;21.464;2024-01-30T05:21:34;25.92;;;11.52;;
82703;SDS011;72427;42.000;21.464;2024-01-30T05:24:00;23.70;;;11.00;;
82703;SDS011;72427;42.000;21.464;2024-01-30T05:26:26;46.45;;;18.98;;
82703;SDS011;72427;42.000;21.464;2024-01-30T05:28:52;61.63;;;23.95;;
82703;SDS011;72427;42.000;21.464;2024-01-30T05:31:18;101.50;;;38.72;;
82703;SDS011;72427;42.000;21.464;2024-01-30T05:33:44;87.10;;;32.95;;
82703;SDS011;72427;42.000;21.464;2024-01-30T05:36:13;58.90;;;26.27;;
82703;SDS011;72427;42.000;21.464;2024-01-30T05:38:39;38.50;;;16.70;;
82703;SDS011;72427;42.000;21.464;2024-01-30T05:41:05;29.00;;;13.38;;
82703;SDS011;72427;42.000;21.464;2024-01-30T05:43:31;28.23;;;12.25;;
82703;SDS011;72427;42.000;21.464;2024-01-30T05:45:57;25.05;;;11.40;;
82703;SDS011;72427;42.000;21.464;2024-01-30T05:48:23;26.25;;;11.35;;
82703;SDS011;72427;42.000;21.464;2024-01-30T05:50:49;24.02;;;10.48;;
82703;SDS011;72427;42.000;21.464;2024-01-30T05:53:15;22.05;;;9.48;;
82703;SDS011;72427;42.000;21.464;2024-01-30T05:55:41;21.45;;;9.95;;
82703;SDS011;72427;42.000;21.464;2024-01-30T05:58:07;25.20;;;11.15;;
82703;SDS011;72427;42.000;21.464;2024-01-30T06:00:33;27.15;;;10.95;;
82703;SDS011;72427;42.000;21.464;2024-01-30T06:02:59;24.48;;;11.65;;
82703;SDS011;72427;42.000;21.464;2024-01-30T06:05:25;22.98;;;11.07;;
82703;SDS011;72427;42.000;21.464;2024-01-30T06:07:51;24.35;;;11.18;;
82703;SDS011;72427;42.000;21.464;2024-01-30T06:10:17;27.90;;;12.13;;
82703;SDS011;72427;42.000;21.464;2024-01-30T06:12:43;29.75;;;11.93;;
82703;SDS011;72427;42.000;21.464;2024-01-30T06:15:09;27.92;;;13.23;;
82703;SDS011;72427;42.000;21.464;2024-01-30T06:17:37;35.20;;;15.90;;
82703;SDS011;72427;42.000;21.464;2024-01-30T06:20:03;52.17;;;20.55;;
82703;SDS011;72427;42.000;21.464;2024-01-30T06:22:30;37.35;;;17.40;;
82703;SDS011;72427;42.000;21.464;2024-01-30T06:24:56;40.47;;;17.40;;
82703;SDS011;72427;42.000;21.464;2024-01-30T06:27:22;38.92;;;18.05;;
82703;SDS011;72427;42.000;21.464;2024-01-30T06:29:48;46.10;;;18.08;;
82703;SDS011;72427;42.000;21.464;2024-01-30T06:32:14;48.80;;;18.00;;
82703;SDS011;72427;42.000;21.464;2024-01-30T06:34:40;36.90;;;14.48;;
82703;SDS011;72427;42.000;21.464;2024-01-30T06:37:09;18.63;;;9.77;;
82703;SDS011;72427;42.000;21.464;2024-01-30T06:39:35;43.78;;;19.77;;
82703;SDS011;72427;42.000;21.464;2024-01-30T06:42:01;40.05;;;19.52;;
82703;SDS011;72427;42.000;21.464;2024-01-30T06:44:27;37.25;;;19.80;;
82703;SDS011;72427;42.000;21.464;2024-01-30T06:46:53;42.42;;;21.05;;
82703;SDS011;72427;42.000;21.464;2024-01-30T06:49:19;34.00;;;18.35;;
82703;SDS011;72427;42.000;21.464;2024-01-30T06:51:47;51.08;;;23.17;;
82703;SDS011;72427;42.000;21.464;2024-01-30T06:54:13;49.25;;;22.55;;
82703;SDS011;72427;42.000;21.464;2024-01-30T06:56:39;47.45;;;21.77;;
82703;SDS011;72427;42.000;21.464;2024-01-30T06:59:05;42.83;;;22.65;;
82703;SDS011;72427;42.000;21.464;2024-01-30T07:01:31;42.35;;;21.20;;
82703;SDS011;72427;42.000;21.464;2024-01-30T07:03:57;44.47;;;21.02;;
82703;SDS011;72427;42.000;21.464;2024-01-30T07:06:24;42.17;;;19.50;;
82703;SDS011;72427;42.000;21.464;2024-01-30T07:08:50;32.97;;;17.20;;
82703;SDS011;72427;42.000;21.464;2024-01-30T07:11:19;40.55;;;18.30;;
82703;SDS011;72427;42.000;21.464;2024-01-30T07:13:47;37.10;;;18.45;;
82703;SDS011;72427;42.000;21.464;2024-01-30T07:16:14;35.08;;;16.83;;
82703;SDS011;72427;42.000;21.464;2024-01-30T07:18:40;34.55;;;15.73;;
82703;SDS011;72427;42.000;21.464;2024-01-30T07:21:06;36.00;;;17.00;;
82703;SDS011;72427;42.000;21.464;2024-01-30T07:23:32;35.63;;;17.15;;
82703;SDS011;72427;42.000;21.464;2024-01-30T07:26:00;41.53;;;19.27;;
82703;SDS011;72427;42.000;21.464;2024-01-30T07:28:26;34.63;;;17.77;;
82703;SDS011;72427;42.000;21.464;2024-01-30T07:30:52;31.70;;;15.95;;
82703;SDS011;72427;42.000;21.464;2024-01-30T07:33:18;31.73;;;15.40;;
82703;SDS011;72427;42.000;21.464;2024-01-30T07:35:45;34.50;;;16.20;;
82703;SDS011;72427;42.000;21.464;2024-01-30T07:38:11;38.85;;;19.45;;
82703;SDS011;72427;42.000;21.464;2024-01-30T07:40:37;36.33;;;17.70;;
82703;SDS011;72427;42.000;21.464;2024-01-30T07:43:03;53.47;;;23.02;;
82703;SDS011;72427;42.000;21.464;2024-01-30T07:45:29;41.13;;;21.90;;
82703;SDS011;72427;42.000;21.464;2024-01-30T07:47:58;40.00;;;22.55;;
82703;SDS011;72427;42.000;21.464;2024-01-30T07:50:25;42.75;;;20.08;;
82703;SDS011;72427;42.000;21.464;2024-01-30T07:52:51;43.72;;;17.27;;
82703;SDS011;72427;42.000;21.464;2024-01-30T07:55:20;41.45;;;18.48;;
82703;SDS011;72427;42.000;21.464;2024-01-30T07:57:49;36.80;;;18.88;;
82703;SDS011;72427;42.000;21.464;2024-01-30T08:00:16;49.95;;;23.60;;
82703;SDS011;72427;42.000;21.464;2024-01-30T08:02:42;45.60;;;21.73;;
82703;SDS011;72427;42.000;21.464;2024-01-30T08:05:08;69.68;;;32.60;;
82703;SDS011;72427;42.000;21.464;2024-01-30T08:07:36;56.63;;;28.08;;
82703;SDS011;72427;42.000;21.464;2024-01-30T08:10:02;52.83;;;26.30;;
82703;SDS011;72427;42.000;21.464;2024-01-30T08:12:28;52.58;;;25.70;;
82703;SDS011;72427;42.000;21.464;2024-01-30T08:14:54;51.17;;;25.38;;
82703;SDS011;72427;42.000;21.464;2024-01-30T08:17:20;44.67;;;25.08;;
82703;SDS011;72427;42.000;21.464;2024-01-30T08:19:46;36.30;;;21.58;;
82703;SDS011;72427;42.000;21.464;2024-01-30T08:22:12;32.97;;;18.65;;
82703;SDS011;72427;42.000;21.464;2024-01-30T08:24:39;35.45;;;17.60;;
82703;SDS011;72427;42.000;21.464;2024-01-30T08:27:06;32.38;;;18.15;;
82703;SDS011;72427;42.000;21.464;2024-01-30T08:29:35;30.88;;;18.67;;
82703;SDS011;72427;42.000;21.464;2024-01-30T08:32:01;31.15;;;16.27;;
82703;SDS011;72427;42.000;21.464;2024-01-30T08:34:27;29.45;;;16.92;;
82703;SDS011;72427;42.000;21.464;2024-01-30T08:36:53;29.17;;;17.92;;
82703;SDS011;72427;42.000;21.464;2024-01-30T08:39:19;27.85;;;15.98;;
82703;SDS011;72427;42.000;21.464;2024-01-30T08:41:45;24.80;;;15.27;;
82703;SDS011;72427;42.000;21.464;2024-01-30T08:44:11;28.50;;;15.07;;
82703;SDS011;72427;42.000;21.464;2024-01-30T08:46:37;23.17;;;11.57;;
82703;SDS011;72427;42.000;21.464;2024-01-30T08:49:03;24.38;;;15.50;;
82703;SDS011;72427;42.000;21.464;2024-01-30T08:51:30;25.50;;;14.77;;
82703;SDS011;72427;42.000;21.464;2024-01-30T08:53:56;24.65;;;14.90;;
82703;SDS011;72427;42.000;21.464;2024-01-30T08:56:22;22.80;;;15.13;;
82703;SDS011;72427;42.000;21.464;2024-01-30T08:58:48;24.63;;;15.65;;
82703;SDS011;72427;42.000;21.464;2024-01-30T09:01:14;24.40;;;15.30;;
82703;SDS011;72427;42.000;21.464;2024-01-30T09:03:40;24.83;;;15.43;;
82703;SDS011;72427;42.000;21.464;2024-01-30T09:06:08;25.10;;;15.25;;
82703;SDS011;72427;42.000;21.464;2024-01-30T09:08:34;16.83;;;8.93;;
82703;SDS011;72427;42.000;21.464;2024-01-30T09:11:01;28.05;;;17.20;;
82703;SDS011;72427;42.000;21.464;2024-01-30T09:13:27;30.73;;;16.90;;
82703;SDS011;72427;42.000;21.464;2024-01-30T09:15:53;22.65;;;14.13;;
82703;SDS011;72427;42.000;21.464;2024-01-30T09:18:19;26.42;;;15.77;;
82703;SDS011;72427;42.000;21.464;2024-01-30T09:20:45;26.98;;;14.52;;
82703;SDS011;72427;42.000;21.464;2024-01-30T09:23:12;20.73;;;13.60;;
82703;SDS011;72427;42.000;21.464;2024-01-30T09:25:38;20.38;;;12.95;;
82703;SDS011;72427;42.000;21.464;2024-01-30T09:28:05;17.38;;;10.32;;
82703;SDS011;72427;42.000;21.464;2024-01-30T09:30:31;16.77;;;9.05;;
82703;SDS011;72427;42.000;21.464;2024-01-30T09:32:58;17.02;;;10.95;;
82703;SDS011;72427;42.000;21.464;2024-01-30T09:35:24;16.92;;;10.20;;
82703;SDS011;72427;42.000;21.464;2024-01-30T09:37:50;16.38;;;9.35;;
82703;SDS011;72427;42.000;21.464;2024-01-30T09:40:17;14.32;;;8.77;;
82703;SDS011;72427;42.000;21.464;2024-01-30T09:42:45;16.55;;;13.18;;
82703;SDS011;72427;42.000;21.464;2024-01-30T09:45:15;18.73;;;10.52;;
82703;SDS011;72427;42.000;21.464;2024-01-30T09:47:43;15.13;;;10.70;;
82703;SDS011;72427;42.000;21.464;2024-01-30T09:50:11;17.10;;;10.45;;
82703;SDS011;72427;42.000;21.464;2024-01-30T09:52:37;14.93;;;9.52;;
82703;SDS011;72427;42.000;21.464;2024-01-30T09:55:04;11.93;;;8.05;;
82703;SDS011;72427;42.000;21.464;2024-01-30T09:57:30;16.20;;;12.57;;
82703;SDS011;72427;42.000;21.464;2024-01-30T09:59:56;14.95;;;8.68;;
82703;SDS011;72427;42.000;21.464;2024-01-30T10:02:23;13.90;;;9.07;;
82703;SDS011;72427;42.000;21.464;2024-01-30T10:04:49;12.40;;;8.55;;
82703;SDS011;72427;42.000;21.464;2024-01-30T10:07:18;14.00;;;8.95;;
82703;SDS011;72427;42.000;21.464;2024-01-30T10:09:45;13.10;;;8.32;;
82703;SDS011;72427;42.000;21.464;2024-01-30T10:12:11;12.82;;;8.13;;
82703;SDS011;72427;42.000;21.464;2024-01-30T10:14:38;10.90;;;7.25;;
82703;SDS011;72427;42.000;21.464;2024-01-30T10:17:04;10.98;;;7.53;;
82703;SDS011;72427;42.000;21.464;2024-01-30T10:19:31;9.52;;;6.57;;
82703;SDS011;72427;42.000;21.464;2024-01-30T10:21:57;9.43;;;6.72;;
82703;SDS011;72427;42.000;21.464;2024-01-30T10:24:26;10.10;;;6.55;;
82703;SDS011;72427;42.000;21.464;2024-01-30T10:26:54;9.93;;;6.72;;
82703;SDS011;72427;42.000;21.464;2024-01-30T10:29:20;9.95;;;7.13;;
82703;SDS011;72427;42.000;21.464;2024-01-30T10:31:57;11.43;;;6.93;;
82703;SDS011;72427;42.000;21.464;2024-01-30T10:34:23;9.73;;;6.47;;
82703;SDS011;72427;42.000;21.464;2024-01-30T10:36:49;10.98;;;6.82;;
82703;SDS011;72427;42.000;21.464;2024-01-30T10:39:16;12.90;;;7.60;;
82703;SDS011;72427;42.000;21.464;2024-01-30T10:41:43;10.60;;;7.18;;
82703;SDS011;72427;42.000;21.464;2024-01-30T10:44:10;11.32;;;7.03;;
82703;SDS011;72427;42.000;21.464;2024-01-30T10:46:40;12.07;;;7.68;;
82703;SDS011;72427;42.000;21.464;2024-01-30T10:49:08;11.65;;;6.97;;
82703;SDS011;72427;42.000;21.464;2024-01-30T10:51:34;12.13;;;8.02;;
82703;SDS011;72427;42.000;21.464;2024-01-30T10:54:02;10.20;;;6.38;;
82703;SDS011;72427;42.000;21.464;2024-01-30T10:56:29;14.68;;;8.32;;
82703;SDS011;72427;42.000;21.464;2024-01-30T10:58:55;15.18;;;8.55;;
82703;SDS011;72427;42.000;21.464;2024-01-30T11:01:22;20.63;;;9.77;;
82703;SDS011;72427;42.000;21.464;2024-01-30T11:03:49;36.10;;;13.05;;
82703;SDS011;72427;42.000;21.464;2024-01-30T11:06:15;15.18;;;9.63;;
82703;SDS011;72427;42.000;21.464;2024-01-30T11:08:43;12.18;;;6.82;;
82703;SDS011;72427;42.000;21.464;2024-01-30T11:11:09;11.38;;;7.15;;
82703;SDS011;72427;42.000;21.464;2024-01-30T11:13:35;12.27;;;7.47;;
82703;SDS011;72427;42.000;21.464;2024-01-30T11:16:02;10.95;;;7.40;;
82703;SDS011;72427;42.000;21.464;2024-01-30T11:18:32;12.48;;;7.28;;
82703;SDS011;72427;42.000;21.464;2024-01-30T11:20:58;11.52;;;6.78;;
82703;SDS011;72427;42.000;21.464;2024-01-30T11:23:27;11.95;;;7.30;;
82703;SDS011;72427;42.000;21.464;2024-01-30T11:25:53;11.23;;;7.55;;
82703;SDS011;72427;42.000;21.464;2024-01-30T11:28:22;10.82;;;6.95;;
82703;SDS011;72427;42.000;21.464;2024-01-30T11:30:49;11.45;;;7.30;;
82703;SDS011;72427;42.000;21.464;2024-01-30T11:35:44;9.57;;;6.28;;
82703;SDS011;72427;42.000;21.464;2024-01-30T11:38:12;8.88;;;6.13;;
82703;SDS011;72427;42.000;21.464;2024-01-30T11:40:39;10.00;;;6.25;;
82703;SDS011;72427;42.000;21.464;2024-01-30T11:43:06;9.52;;;6.30;;
82703;SDS011;72427;42.000;21.464;2024-01-30T11:45:33;13.80;;;7.43;;
82703;SDS011;72427;42.000;21.464;2024-01-30T11:47:59;13.63;;;7.50;;
82703;SDS011;72427;42.000;21.464;2024-01-30T11:50:28;9.95;;;6.78;;
82703;SDS011;72427;42.000;21.464;2024-01-30T11:52:54;11.45;;;7.13;;
82703;SDS011;72427;42.000;21.464;2024-01-30T11:55:21;14.40;;;8.75;;
82703;SDS011;72427;42.000;21.464;2024-01-30T11:57:47;22.27;;;12.85;;
82703;SDS011;72427;42.000;21.464;2024-01-30T12:00:17;10.80;;;7.45;;
82703;SDS011;72427;42.000;21.464;2024-01-30T12:02:53;11.45;;;7.03;;
82703;SDS011;72427;42.000;21.464;2024-01-30T12:05:24;11.45;;;8.77;;
82703;SDS011;72427;42.000;21.464;2024-01-30T12:07:50;10.68;;;6.18;;
82703;SDS011;72427;42.000;21.464;2024-01-30T12:10:16;9.38;;;6.47;;
82703;SDS011;72427;42.000;21.464;2024-01-30T12:12:43;8.55;;;6.18;;
82703;SDS011;72427;42.000;21.464;2024-01-30T12:15:10;15.27;;;7.88;;
82703;SDS011;72427;42.000;21.464;2024-01-30T12:17:36;9.57;;;6.38;;
82703;SDS011;72427;42.000;21.464;2024-01-30T12:20:12;11.00;;;6.00;;
82703;SDS011;72427;42.000;21.464;2024-01-30T12:22:39;10.48;;;7.03;;
82703;SDS011;72427;42.000;21.464;2024-01-30T12:25:12;9.05;;;6.18;;
82703;SDS011;72427;42.000;21.464;2024-01-30T12:27:39;11.00;;;6.40;;
82703;SDS011;72427;42.000;21.464;2024-01-30T12:30:08;14.27;;;6.40;;
82703;SDS011;72427;42.000;21.464;2024-01-30T12:32:39;11.38;;;6.32;;
82703;SDS011;72427;42.000;21.464;2024-01-30T12:35:18;10.02;;;6.80;;
82703;SDS011;72427;42.000;21.464;2024-01-30T12:37:44;10.38;;;6.10;;
82703;SDS011;72427;42.000;21.464;2024-01-30T12:40:11;11.23;;;6.65;;
82703;SDS011;72427;42.000;21.464;2024-01-30T12:42:41;10.93;;;6.50;;
82703;SDS011;72427;42.000;21.464;2024-01-30T12:45:07;11.82;;;5.47;;
82703;SDS011;72427;42.000;21.464;2024-01-30T12:47:34;10.40;;;5.90;;
82703;SDS011;72427;42.000;21.464;2024-01-30T12:50:00;9.25;;;5.57;;
82703;SDS011;72427;42.000;21.464;2024-01-30T12:52:26;8.77;;;5.75;;
82703;SDS011;72427;42.000;21.464;2024-01-30T12:54:52;9.40;;;4.70;;
82703;SDS011;72427;42.000;21.464;2024-01-30T12:57:19;10.02;;;5.65;;
82703;SDS011;72427;42.000;21.464;2024-01-30T12:59:45;10.52;;;5.80;;
82703;SDS011;72427;42.000;21.464;2024-01-30T13:02:14;10.70;;;5.65;;
82703;SDS011;72427;42.000;21.464;2024-01-30T13:04:40;10.57;;;5.65;;
82703;SDS011;72427;42.000;21.464;2024-01-30T13:07:07;10.20;;;6.18;;
82703;SDS011;72427;42.000;21.464;2024-01-30T13:09:33;9.95;;;5.32;;
82703;SDS011;72427;42.000;21.464;2024-01-30T13:11:59;10.27;;;5.35;;
82703;SDS011;72427;42.000;21.464;2024-01-30T13:14:25;8.88;;;5.60;;
82703;SDS011;72427;42.000;21.464;2024-01-30T13:16:51;9.00;;;6.57;;
82703;SDS011;72427;42.000;21.464;2024-01-30T13:19:18;17.60;;;6.38;;
82703;SDS011;72427;42.000;21.464;2024-01-30T13:21:44;9.77;;;5.70;;
82703;SDS011;72427;42.000;21.464;2024-01-30T13:24:10;13.20;;;6.78;;
82703;SDS011;72427;42.000;21.464;2024-01-30T13:26:36;9.05;;;5.43;;
82703;SDS011;72427;42.000;21.464;2024-01-30T13:29:02;11.18;;;5.65;;
82703;SDS011;72427;42.000;21.464;2024-01-30T13:31:29;11.07;;;7.50;;
82703;SDS011;72427;42.000;21.464;2024-01-30T13:33:55;10.13;;;5.97;;
82703;SDS011;72427;42.000;21.464;2024-01-30T13:36:22;8.60;;;4.88;;
82703;SDS011;72427;42.000;21.464;2024-01-30T13:38:48;9.35;;;4.93;;
82703;SDS011;72427;42.000;21.464;2024-01-30T13:41:14;11.23;;;6.90;;
82703;SDS011;72427;42.000;21.464;2024-01-30T13:43:43;15.05;;;8.32;;
82703;SDS011;72427;42.000;21.464;2024-01-30T13:46:09;11.93;;;5.22;;
82703;SDS011;72427;42.000;21.464;2024-01-30T13:48:35;8.90;;;4.63;;
82703;SDS011;72427;42.000;21.464;2024-01-30T13:51:01;9.20;;;3.28;;
82703;SDS011;72427;42.000;21.464;2024-01-30T13:53:27;8.98;;;5.63;;
82703;SDS011;72427;42.000;21.464;2024-01-30T13:55:54;13.20;;;6.43;;
82703;SDS011;72427;42.000;21.464;2024-01-30T13:58:20;10.32;;;4.65;;
82703;SDS011;72427;42.000;21.464;2024-01-30T14:00:46;7.57;;;4.32;;
82703;SDS011;72427;42.000;21.464;2024-01-30T14:03:12;8.63;;;4.78;;
82703;SDS011;72427;42.000;21.464;2024-01-30T14:05:38;8.63;;;4.53;;
82703;SDS011;72427;42.000;21.464;2024-01-30T14:08:05;10.25;;;5.00;;
82703;SDS011;72427;42.000;21.464;2024-01-30T14:10:33;10.98;;;5.22;;
82703;SDS011;72427;42.000;21.464;2024-01-30T14:12:59;7.93;;;4.97;;
82703;SDS011;72427;42.000;21.464;2024-01-30T14:15:25;10.68;;;5.30;;